createdAt,value
2024-04-30T03:33:09.333Z,96954.19
2024-04-30T03:35:37.078Z,96958.53
2024-04-30T03:38:04.376Z,96963.34
2024-04-30T03:40:31.638Z,96971.81
2024-04-30T03:42:58.815Z,96960.84
2024-04-30T03:45:25.994Z,96975.19
2024-04-30T03:47:53.291Z,96959.47
2024-04-30T03:50:20.610Z,96964.03
2024-04-30T03:52:47.739Z,96960.63
2024-04-30T03:55:14.981Z,96976.16
2024-04-30T03:57:42.163Z,96969.06
2024-04-30T04:00:09.617Z,96972.44
2024-04-30T04:02:36.791Z,96966.91
2024-04-30T04:05:04.163Z,96969.34
2024-04-30T04:07:31.378Z,96961.09
2024-04-30T04:09:58.598Z,96966.00
2024-04-30T04:12:44.421Z,96966.94
2024-04-30T04:15:11.610Z,96964.88
2024-04-30T04:17:38.804Z,96963.78
2024-04-30T04:20:06.296Z,96957.69
2024-04-30T04:22:33.604Z,96963.66
2024-04-30T04:25:00.850Z,96971.50
2024-04-30T04:27:28.287Z,96968.34
2024-04-30T04:29:55.455Z,96970.75
2024-04-30T04:32:22.619Z,96964.88
2024-04-30T04:34:49.882Z,96965.56
2024-04-30T04:37:17.037Z,96980.50
2024-04-30T04:39:44.603Z,96986.78
2024-04-30T04:42:11.742Z,96983.63
2024-04-30T04:44:38.858Z,96982.31
2024-04-30T04:47:06.020Z,96988.66
2024-04-30T04:49:33.262Z,96990.91
2024-04-30T04:52:00.474Z,96994.94
2024-04-30T04:54:27.660Z,96998.38
2024-04-30T04:56:54.880Z,96997.50
2024-04-30T04:59:22.044Z,96987.72
2024-04-30T05:01:49.398Z,96991.34
2024-04-30T05:04:16.992Z,96997.09
2024-04-30T05:06:44.327Z,96991.00
2024-04-30T05:09:11.775Z,96992.25
2024-04-30T05:11:39.004Z,96993.75
2024-04-30T05:14:06.168Z,97000.81
2024-04-30T05:16:33.374Z,96994.75
2024-04-30T05:19:00.872Z,96985.44
2024-04-30T05:21:28.028Z,96990.31
2024-04-30T05:23:55.189Z,96993.38
2024-04-30T05:26:22.291Z,96997.63
2024-04-30T05:28:49.432Z,96999.44
2024-04-30T05:31:16.605Z,96999.75
2024-04-30T05:33:43.970Z,96988.00
2024-04-30T05:36:11.362Z,96994.44
2024-04-30T05:38:38.554Z,96991.41
2024-04-30T05:41:06.713Z,96987.47
2024-04-30T05:43:34.131Z,96994.59
2024-04-30T05:46:01.587Z,96986.66
2024-04-30T05:48:28.936Z,96991.03
2024-04-30T05:50:56.073Z,96985.72
2024-04-30T05:53:23.274Z,96991.44
2024-04-30T05:55:50.535Z,96984.28
2024-04-30T05:58:17.845Z,96987.88
2024-04-30T06:00:45.176Z,96982.38
2024-04-30T06:03:12.411Z,96992.75
2024-04-30T06:05:39.866Z,96991.69
2024-04-30T06:08:10.217Z,96993.72
2024-04-30T06:10:37.474Z,96990.28
2024-04-30T06:13:04.954Z,96992.41
2024-04-30T06:15:32.112Z,96994.84
2024-04-30T06:18:01.112Z,96987.06
2024-04-30T06:20:28.270Z,96986.41
2024-04-30T06:22:55.404Z,96991.84
2024-04-30T06:25:22.534Z,96985.91
2024-04-30T06:27:49.737Z,96988.31
2024-04-30T06:30:16.850Z,96983.41
2024-04-30T06:32:44.156Z,96987.78
2024-04-30T06:35:11.335Z,96982.50
2024-04-30T06:37:38.642Z,96982.34
2024-04-30T06:40:06.348Z,96973.63
2024-04-30T06:42:34.917Z,96968.69
2024-04-30T06:45:02.217Z,96974.88
2024-04-30T06:47:29.780Z,96966.84
2024-04-30T06:49:56.970Z,96964.66
2024-04-30T06:52:24.142Z,96978.97
2024-04-30T06:54:51.298Z,96977.06
2024-04-30T06:57:18.465Z,96976.19
2024-04-30T06:59:45.619Z,96978.06
2024-04-30T07:02:12.798Z,96967.25
2024-04-30T07:04:40.093Z,96967.16
2024-04-30T07:07:07.338Z,96968.88
2024-04-30T07:09:34.494Z,96967.19
2024-04-30T07:12:01.716Z,96962.34
2024-04-30T07:14:28.806Z,96963.13
2024-04-30T07:17:02.614Z,96955.22
2024-04-30T07:19:33.915Z,96961.69
2024-04-30T07:22:01.249Z,96955.81
2024-04-30T07:24:28.386Z,96956.38
2024-04-30T07:26:55.593Z,96959.06
2024-04-30T07:29:22.756Z,96954.78
2024-04-30T07:31:50.599Z,96960.53
2024-04-30T07:34:18.357Z,96957.91
2024-04-30T07:36:45.621Z,96952.06
2024-04-30T07:39:12.728Z,96944.47
2024-04-30T07:41:39.961Z,96944.19
2024-04-30T07:44:07.086Z,96948.94
2024-04-30T07:46:34.328Z,96952.38
2024-04-30T07:49:01.508Z,96953.97
2024-04-30T07:51:28.696Z,96957.09
2024-04-30T07:53:55.844Z,96951.28
2024-04-30T07:56:23.154Z,96963.25
2024-04-30T07:58:50.427Z,96947.97
2024-04-30T08:01:17.707Z,96957.72
2024-04-30T08:03:44.893Z,96942.63
2024-04-30T08:06:18.627Z,96944.06
2024-04-30T08:08:48.162Z,96949.00
2024-04-30T08:11:15.905Z,96945.91
2024-04-30T08:13:45.508Z,96937.56
2024-04-30T08:16:13.136Z,96939.72
2024-04-30T08:18:40.415Z,96934.19
2024-04-30T08:21:08.165Z,96936.88
2024-04-30T08:23:35.548Z,96938.97
2024-04-30T08:26:02.865Z,96933.06
2024-04-30T08:28:30.088Z,96936.25
2024-04-30T08:30:57.813Z,96936.63
2024-04-30T08:33:25.444Z,96931.78
2024-04-30T08:35:52.633Z,96928.97
2024-04-30T08:38:19.869Z,96927.63
2024-04-30T08:40:47.238Z,96926.97
2024-04-30T08:43:15.105Z,96932.13
2024-04-30T08:45:43.134Z,96919.81
2024-04-30T08:48:11.456Z,96923.91
2024-04-30T08:50:39.070Z,96924.16
2024-04-30T08:53:08.322Z,96917.88
2024-04-30T08:55:36.287Z,96924.50
2024-04-30T08:58:03.830Z,96928.34
2024-04-30T09:00:31.084Z,96917.59
2024-04-30T09:03:02.727Z,96921.34
2024-04-30T09:05:31.899Z,96920.88
2024-04-30T09:07:59.921Z,96922.19
2024-04-30T09:10:27.285Z,96918.28
2024-04-30T09:13:00.618Z,96917.03
2024-04-30T09:15:27.769Z,96919.69
2024-04-30T09:18:05.258Z,96907.91
2024-04-30T09:20:32.437Z,96904.03
2024-04-30T09:23:00.925Z,96899.59
2024-04-30T09:25:37.704Z,96897.19
2024-04-30T09:28:17.478Z,96895.38
2024-04-30T09:30:45.067Z,96892.69
2024-04-30T09:33:12.455Z,96892.56
2024-04-30T09:35:39.633Z,96884.94
2024-04-30T09:38:09.059Z,96883.63
2024-04-30T09:40:36.627Z,96880.94
2024-04-30T09:43:04.455Z,96882.72
2024-04-30T09:45:32.586Z,96875.06
2024-04-30T09:48:01.474Z,96877.13
2024-04-30T09:50:28.716Z,96870.31
2024-04-30T09:52:55.916Z,96869.06
2024-04-30T09:55:25.673Z,96876.03
2024-04-30T09:57:52.857Z,96864.84
2024-04-30T10:00:24.923Z,96867.84
2024-04-30T10:03:04.702Z,96865.75
2024-04-30T10:05:41.194Z,96869.84
2024-04-30T10:08:09.526Z,96856.44
2024-04-30T10:10:36.830Z,96853.94
2024-04-30T10:13:10.851Z,96845.78
2024-04-30T10:15:41.213Z,96848.38
2024-04-30T10:18:11.075Z,96844.72
2024-04-30T10:20:39.020Z,96841.22
2024-04-30T10:23:07.115Z,96837.78
2024-04-30T10:25:34.579Z,96841.59
2024-04-30T10:28:09.604Z,96835.84
2024-04-30T10:30:37.365Z,96838.91
2024-04-30T10:33:05.120Z,96833.31
2024-04-30T10:35:44.903Z,96825.44
2024-04-30T10:38:12.032Z,96827.03
2024-04-30T10:40:39.309Z,96819.00
2024-04-30T10:43:06.536Z,96816.94
2024-04-30T10:45:33.758Z,96809.66
2024-04-30T10:48:01.125Z,96812.81
2024-04-30T10:50:29.916Z,96814.91
2024-04-30T10:53:00.776Z,96808.06
2024-04-30T10:55:28.130Z,96807.50
2024-04-30T10:57:55.259Z,96796.56
2024-04-30T11:00:22.464Z,96797.06
2024-04-30T11:02:56.550Z,96787.91
2024-04-30T11:05:24.655Z,96796.22
2024-04-30T11:07:58.432Z,96783.16
2024-04-30T11:10:29.405Z,96782.59
2024-04-30T11:13:00.000Z,96778.63
2024-04-30T11:15:27.213Z,96775.97
2024-04-30T11:17:54.518Z,96770.13
2024-04-30T11:20:21.914Z,96774.47
2024-04-30T11:22:49.255Z,96774.28
2024-04-30T11:25:16.553Z,96768.41
2024-04-30T11:27:43.746Z,96763.88
2024-04-30T11:30:11.208Z,96753.59
2024-04-30T11:32:38.632Z,96745.19
2024-04-30T11:35:05.835Z,96741.56
2024-04-30T11:37:34.843Z,96749.47
2024-04-30T11:40:02.196Z,96741.38
2024-04-30T11:42:34.657Z,96744.00
2024-04-30T11:45:08.969Z,96746.25
2024-04-30T11:47:36.260Z,96730.34
2024-04-30T11:50:03.699Z,96729.09
2024-04-30T11:52:30.894Z,96729.88
2024-04-30T11:54:59.228Z,96726.28
2024-04-30T11:57:26.775Z,96722.06
2024-04-30T11:59:54.814Z,96720.38
2024-04-30T12:02:22.175Z,96708.31
2024-04-30T12:04:49.650Z,96707.94
2024-04-30T12:07:16.990Z,96702.09
2024-04-30T12:09:44.189Z,96704.47
2024-04-30T12:12:11.391Z,96698.34
2024-04-30T12:14:38.600Z,96705.28
2024-04-30T12:17:06.953Z,96702.09
2024-04-30T12:19:34.402Z,96701.38
2024-04-30T12:22:01.709Z,96694.34
2024-04-30T12:24:28.877Z,96697.06
2024-04-30T12:26:57.874Z,96688.75
2024-04-30T12:29:25.095Z,96690.31
2024-04-30T12:31:52.335Z,96677.38
2024-04-30T12:34:19.617Z,96684.97
2024-04-30T12:36:46.828Z,96670.28
2024-04-30T12:39:14.383Z,96679.41
2024-04-30T12:41:41.818Z,96681.00
2024-04-30T12:44:11.790Z,96671.94
2024-04-30T12:46:39.046Z,96668.06
2024-04-30T12:49:06.513Z,96673.63
2024-04-30T12:51:33.762Z,96668.00
2024-04-30T12:54:01.070Z,96668.88
2024-04-30T12:56:28.230Z,96665.66
2024-04-30T12:58:55.580Z,96653.41
2024-04-30T13:01:25.508Z,96647.84
2024-04-30T13:03:53.506Z,96651.19
2024-04-30T13:06:20.880Z,96659.72
2024-04-30T13:08:48.258Z,96647.56
2024-04-30T13:11:15.672Z,96643.34
2024-04-30T13:13:42.987Z,96647.28
2024-04-30T13:16:10.304Z,96642.06
2024-04-30T13:18:37.765Z,96639.81
2024-04-30T13:21:05.275Z,96642.13
2024-04-30T13:23:36.114Z,96634.31
2024-04-30T13:26:03.299Z,96630.41
2024-04-30T13:28:30.709Z,96624.19
2024-04-30T13:30:59.366Z,96619.47
2024-04-30T13:33:29.470Z,96623.66
2024-04-30T13:35:56.752Z,96625.34
2024-04-30T13:38:24.201Z,96617.91
2024-04-30T13:40:51.483Z,96611.16
2024-04-30T13:43:19.769Z,96596.44
2024-04-30T13:45:47.369Z,96611.84
2024-04-30T13:48:14.670Z,96596.69
2024-04-30T13:50:41.854Z,96600.28
2024-04-30T13:53:09.572Z,96600.66
2024-04-30T13:55:36.750Z,96599.84
2024-04-30T13:58:05.491Z,96586.09
2024-04-30T14:00:32.738Z,96588.00
2024-04-30T14:02:59.937Z,96592.78
2024-04-30T14:05:27.163Z,96580.72
2024-04-30T14:07:54.480Z,96574.78
2024-04-30T14:10:21.739Z,96582.50
2024-04-30T14:12:49.660Z,96570.84
2024-04-30T14:15:17.134Z,96569.75
2024-04-30T14:17:44.447Z,96569.91
2024-04-30T14:20:11.669Z,96569.34
2024-04-30T14:22:39.113Z,96566.19
2024-04-30T14:25:07.072Z,96563.44
2024-04-30T14:27:34.251Z,96558.72
2024-04-30T14:30:01.433Z,96551.22
2024-04-30T14:34:55.943Z,96554.09
2024-04-30T14:37:23.213Z,96553.66
2024-04-30T14:39:52.450Z,96549.81
2024-04-30T14:42:19.735Z,96537.22
2024-04-30T14:44:49.315Z,96532.94
2024-04-30T14:47:16.600Z,96534.06
2024-04-30T14:49:43.909Z,96520.25
2024-04-30T14:52:11.206Z,96523.16
2024-04-30T14:54:40.727Z,96519.63
2024-04-30T14:57:07.908Z,96516.09
2024-04-30T14:59:35.273Z,96521.84
2024-04-30T15:02:02.583Z,96514.41
2024-04-30T15:04:29.926Z,96520.38
2024-04-30T15:06:57.199Z,96517.22
2024-04-30T15:09:24.319Z,96507.03
2024-04-30T15:11:51.639Z,96503.38
2024-04-30T15:14:18.772Z,96505.25
2024-04-30T15:16:46.032Z,96496.13
2024-04-30T15:19:13.392Z,96494.13
2024-04-30T15:21:44.606Z,96493.38
2024-04-30T15:24:12.059Z,96487.16
2024-04-30T15:26:42.216Z,96484.81
2024-04-30T15:29:12.359Z,96484.75
2024-04-30T15:31:39.563Z,96483.97
2024-04-30T15:34:06.716Z,96475.41
2024-04-30T15:36:33.830Z,96469.13
2024-04-30T15:39:00.950Z,96465.59
2024-04-30T15:41:28.137Z,96465.09
2024-04-30T15:43:55.346Z,96465.59
2024-04-30T15:46:22.753Z,96467.94
2024-04-30T15:48:52.253Z,96456.28
2024-04-30T15:51:19.627Z,96459.28
2024-04-30T15:53:46.755Z,96458.97
2024-04-30T15:56:18.349Z,96453.91
2024-04-30T15:58:46.583Z,96456.63
2024-04-30T16:01:14.111Z,96444.47
2024-04-30T16:03:41.484Z,96447.00
2024-04-30T16:06:08.899Z,96439.63
2024-04-30T16:08:36.662Z,96443.81
2024-04-30T16:11:10.369Z,96430.34
2024-04-30T16:13:39.396Z,96435.47
2024-04-30T16:16:12.987Z,96433.75
2024-04-30T16:18:45.894Z,96433.00
2024-04-30T16:21:13.561Z,96430.81
2024-04-30T16:23:40.685Z,96425.00
2024-04-30T16:26:08.301Z,96427.31
2024-04-30T16:28:35.971Z,96422.78
2024-04-30T16:31:04.213Z,96426.84
2024-04-30T16:33:31.932Z,96423.75
2024-04-30T16:35:59.289Z,96419.03
2024-04-30T16:38:26.433Z,96417.00
2024-04-30T16:40:54.765Z,96417.28
2024-04-30T16:43:22.890Z,96415.81
2024-04-30T16:45:50.614Z,96423.75
2024-04-30T16:48:18.094Z,96409.28
2024-04-30T16:50:45.430Z,96417.41
2024-04-30T16:53:12.591Z,96411.13
2024-04-30T16:55:39.774Z,96406.88
2024-04-30T16:58:06.938Z,96401.88
2024-04-30T17:00:34.370Z,96416.63
2024-04-30T17:03:01.697Z,96405.50
2024-04-30T17:05:28.960Z,96409.59
2024-04-30T17:07:56.103Z,96403.81
2024-04-30T17:10:23.319Z,96411.25
2024-04-30T17:12:50.973Z,96406.16
2024-04-30T17:15:18.372Z,96402.63
2024-04-30T17:17:45.630Z,96400.19
2024-04-30T17:20:12.854Z,96399.28
2024-04-30T17:22:40.354Z,96398.50
2024-04-30T17:25:07.980Z,96390.78
2024-04-30T17:27:35.372Z,96395.53
2024-04-30T17:30:02.928Z,96395.09
2024-04-30T17:32:30.637Z,96397.09
2024-04-30T17:34:57.934Z,96403.34
2024-04-30T17:37:26.244Z,96405.38
2024-04-30T17:39:53.541Z,96404.59
2024-04-30T17:42:20.807Z,96398.72
2024-04-30T17:44:48.014Z,96401.84
2024-04-30T17:47:15.228Z,96392.84
2024-04-30T17:49:42.504Z,96402.50
2024-04-30T17:52:09.688Z,96395.50
2024-04-30T17:54:36.908Z,96396.78
2024-04-30T17:57:04.320Z,96399.50
2024-04-30T17:59:31.460Z,96398.66
2024-04-30T18:01:58.777Z,96393.28
2024-04-30T18:04:26.126Z,96391.66
2024-04-30T18:06:53.558Z,96395.56
2024-04-30T18:09:20.919Z,96402.63
2024-04-30T18:11:48.205Z,96394.72
2024-04-30T18:14:15.481Z,96401.56
2024-04-30T18:16:42.727Z,96396.50
2024-04-30T18:19:10.215Z,96396.50
2024-04-30T18:21:38.208Z,96403.69
2024-04-30T18:24:07.683Z,96392.00
2024-04-30T18:26:42.567Z,96400.28
2024-04-30T18:29:10.171Z,96392.63
2024-04-30T18:31:37.375Z,96398.25
2024-04-30T18:34:04.780Z,96401.25
2024-04-30T18:36:37.310Z,96397.78
2024-04-30T18:39:05.735Z,96402.03
2024-04-30T18:41:34.329Z,96408.38
2024-04-30T18:44:01.487Z,96407.63
2024-04-30T18:46:28.644Z,96414.72
2024-04-30T18:48:56.316Z,96409.00
2024-04-30T18:51:24.196Z,96408.59
2024-04-30T18:53:51.500Z,96409.56
2024-04-30T18:56:19.095Z,96409.31
2024-04-30T18:58:47.890Z,96418.31
2024-04-30T19:01:16.688Z,96407.09
2024-04-30T19:03:46.804Z,96410.00
2024-04-30T19:06:16.170Z,96417.06
2024-04-30T19:08:44.068Z,96418.66
2024-04-30T19:11:11.688Z,96409.81
2024-04-30T19:13:39.538Z,96406.22
2024-04-30T19:16:07.069Z,96406.09
2024-04-30T19:18:37.407Z,96419.28
2024-04-30T19:21:05.099Z,96421.22
2024-04-30T19:23:33.827Z,96425.72
2024-04-30T19:26:01.754Z,96422.38
2024-04-30T19:28:30.084Z,96423.78
2024-04-30T19:30:57.340Z,96427.84
2024-04-30T19:33:25.964Z,96426.22
2024-04-30T19:35:53.447Z,96428.38
2024-04-30T19:38:20.635Z,96426.59
2024-04-30T19:40:47.862Z,96426.03
2024-04-30T19:43:16.180Z,96420.59
2024-04-30T19:45:43.837Z,96427.59
2024-04-30T19:48:16.838Z,96422.75
2024-04-30T19:50:46.238Z,96419.69
2024-04-30T19:53:13.387Z,96416.31
2024-04-30T19:55:41.399Z,96416.53
2024-04-30T19:58:09.556Z,96414.97
2024-04-30T20:00:36.842Z,96411.69
2024-04-30T20:03:04.421Z,96413.03
2024-04-30T20:05:32.078Z,96414.06
2024-04-30T20:08:00.604Z,96410.81
2024-04-30T20:10:27.921Z,96406.88
2024-04-30T20:12:55.407Z,96410.19
2024-04-30T20:15:22.747Z,96414.72
2024-04-30T20:17:50.039Z,96408.09
2024-04-30T20:20:17.350Z,96409.06
2024-04-30T20:22:46.109Z,96407.06
2024-04-30T20:25:14.239Z,96401.34
2024-04-30T20:27:42.011Z,96400.56
2024-04-30T20:30:11.794Z,96400.97
2024-04-30T20:32:40.578Z,96398.16
2024-04-30T20:35:08.260Z,96403.31
2024-04-30T20:37:35.525Z,96390.91
2024-04-30T20:40:03.670Z,96399.91
2024-04-30T20:42:31.063Z,96390.25
2024-04-30T20:44:58.291Z,96395.34
2024-04-30T20:47:25.961Z,96394.69
2024-04-30T20:49:53.445Z,96389.81
2024-04-30T20:52:20.791Z,96387.44
2024-04-30T20:54:47.977Z,96390.97
2024-04-30T20:57:15.229Z,96384.69
2024-04-30T20:59:42.553Z,96390.53
2024-04-30T21:02:10.238Z,96386.91
2024-04-30T21:04:37.668Z,96380.63
2024-04-30T21:07:05.175Z,96382.53
2024-04-30T21:09:32.871Z,96382.16
2024-04-30T21:12:00.267Z,96385.66
2024-04-30T21:14:27.683Z,96372.13
2024-04-30T21:16:54.823Z,96379.94
2024-04-30T21:19:22.194Z,96374.00
2024-04-30T21:21:49.669Z,96381.50
2024-04-30T21:24:16.907Z,96378.25
2024-04-30T21:26:44.111Z,96360.09
2024-04-30T21:29:11.323Z,96377.66
2024-04-30T21:31:38.524Z,96369.63
2024-04-30T21:34:05.671Z,96360.66
2024-04-30T21:36:33.299Z,96371.16
2024-04-30T21:39:00.461Z,96369.47
2024-04-30T21:41:27.614Z,96364.75
2024-04-30T21:43:54.746Z,96368.78
2024-04-30T21:46:21.893Z,96365.63
2024-04-30T21:48:49.150Z,96364.03
2024-04-30T21:51:20.042Z,96358.69
2024-04-30T21:53:47.648Z,96347.59
2024-04-30T21:56:16.082Z,96351.94
2024-04-30T21:58:43.277Z,96353.22
